Time;durP1;ratioP1;P1;durP2;ratioP2;P2;SDS_P1;SDS_P2;PMS_P1;PMS_P2;Temp;Humidity;BMP_temperature;BMP_pressure;BME280_temperature;BME280_humidity;BME280_pressure;Samples;Min_cycle;Max_cycle;Signal;HPM_P1;HPM_P2
2022/01/30 00:01:44;;;;;;;;;9.00;9.00;;;;;10.67;79.80;102558.06;5047754;28;45453;-79
2022/01/30 00:04:10;;;;;;;;;8.75;8.75;;;;;10.68;79.66;102538.78;5042686;28;45546;-79
2022/01/30 00:06:36;;;;;;;;;7.50;7.50;;;;;10.61;80.27;102524.50;5057668;28;45298;-79
2022/01/30 00:09:02;;;;;;;;;9.75;7.75;;;;;10.67;80.15;102540.50;5042073;28;47147;-79
2022/01/30 00:11:32;;;;;;;;;14.25;7.50;;;;;10.54;80.75;102517.22;5039907;28;45239;-79
2022/01/30 00:13:59;;;;;;;;;9.00;8.25;;;;;10.65;79.94;102534.28;5039172;28;45338;-80
2022/01/30 00:16:29;;;;;;;;;10.25;10.25;;;;;10.64;80.30;102534.25;5022252;28;45608;-79
2022/01/30 00:19:10;;;;;;;;;7.50;7.00;;;;;10.70;80.59;102547.63;5036501;28;48746;-79
2022/01/30 00:21:41;;;;;;;;;6.25;6.25;;;;;10.59;79.58;102512.97;5048781;28;45454;-79
2022/01/30 00:26:35;;;;;;;;;13.50;10.25;;;;;10.74;79.80;102547.81;5039091;28;45514;-79
2022/01/30 00:29:00;;;;;;;;;9.00;9.00;;;;;10.75;80.27;102544.31;5039749;28;45430;-79
2022/01/30 00:31:27;;;;;;;;;11.00;10.00;;;;;10.61;80.33;102519.22;5040411;28;45463;-79
2022/01/30 00:33:53;;;;;;;;;9.75;8.50;;;;;10.50;80.19;102497.72;5038870;28;45173;-79
2022/01/30 00:36:18;;;;;;;;;12.25;11.00;;;;;10.70;79.65;102527.47;5044926;28;45524;-79
2022/01/30 00:38:43;;;;;;;;;10.25;9.00;;;;;10.69;80.67;102512.47;5049480;28;45428;-79
2022/01/30 00:41:09;;;;;;;;;8.25;7.00;;;;;10.67;79.73;102500.06;5042839;28;45276;-79
2022/01/30 00:43:35;;;;;;;;;14.25;10.25;;;;;10.69;80.43;102514.19;5056567;28;45224;-80
2022/01/30 00:46:00;;;;;;;;;9.25;8.75;;;;;10.73;79.83;102522.28;5057236;28;45438;-79
2022/01/30 00:48:26;;;;;;;;;10.75;9.00;;;;;10.72;80.20;102520.50;5044686;28;46656;-79
2022/01/30 00:50:52;;;;;;;;;9.75;8.25;;;;;10.67;80.54;102514.16;5039575;28;45352;-79
2022/01/30 00:53:17;;;;;;;;;10.25;8.75;;;;;10.76;80.72;102532.94;5040470;28;45426;-79
2022/01/30 00:55:43;;;;;;;;;11.75;10.00;;;;;10.73;79.74;102513.47;5038452;28;45470;-79
2022/01/30 00:58:09;;;;;;;;;8.00;5.50;;;;;10.79;79.58;102516.31;5047262;28;45420;-80
2022/01/30 01:00:35;;;;;;;;;8.00;8.00;;;;;10.56;79.75;102466.34;5047264;28;45387;-78
2022/01/30 01:03:02;;;;;;;;;6.50;6.50;;;;;10.76;80.17;102500.41;5038457;28;45413;-78
2022/01/30 01:05:29;;;;;;;;;9.75;7.50;;;;;10.69;79.47;102496.66;5055663;28;45181;-79
2022/01/30 01:07:57;;;;;;;;;12.50;8.75;;;;;10.62;79.96;102484.13;5056091;28;46417;-78
2022/01/30 01:13:04;;;;;;;;;8.00;8.00;;;;;10.63;80.23;102508.72;5044069;28;45438;-79
2022/01/30 01:23:26;;;;;;;;;10.50;9.00;;;;;10.56;80.47;102497.06;5044331;28;45498;-80
2022/01/30 01:23:50;;;;;;;;;9.00;9.00;;;;;10.42;80.57;102475.50;5036720;28;45275;-78
2022/01/30 01:26:16;;;;;;;;;11.25;8.75;;;;;10.55;80.76;102493.53;5039139;28;45387;-79
2022/01/30 01:28:42;;;;;;;;;8.25;8.25;;;;;10.54;79.97;102499.66;5036650;28;46660;-80
2022/01/30 01:31:07;;;;;;;;;5.50;5.00;;;;;10.47;80.19;102489.72;5019308;28;45222;-79
2022/01/30 01:33:45;;;;;;;;;8.75;8.00;;;;;10.49;80.14;102490.66;5038587;28;45158;-79
2022/01/30 01:36:11;;;;;;;;;5.00;3.75;;;;;10.49;79.99;102497.69;5039058;28;45387;-78
2022/01/30 01:38:37;;;;;;;;;5.75;5.00;;;;;10.47;80.57;102496.75;5037552;28;47002;-78
2022/01/30 01:41:02;;;;;;;;;9.75;7.50;;;;;10.44;80.78;102481.72;5039365;28;45392;-77
2022/01/30 01:43:28;;;;;;;;;7.75;7.50;;;;;10.52;80.65;102487.28;5038774;28;45304;-78
2022/01/30 01:45:56;;;;;;;;;9.75;8.25;;;;;10.57;80.57;102488.31;5039812;28;45411;-78
2022/01/30 01:48:22;;;;;;;;;9.50;8.25;;;;;10.61;80.78;102487.59;5037373;28;45571;-78
2022/01/30 01:51:06;;;;;;;;;10.25;10.25;;;;;10.60;80.06;102488.41;5037363;28;45308;-78
2022/01/30 01:53:32;;;;;;;;;9.25;9.00;;;;;10.65;79.23;102492.13;5046903;28;45494;-77
2022/01/30 01:55:58;;;;;;;;;7.75;6.50;;;;;10.67;79.53;102489.53;5056435;28;45168;-79
2022/01/30 01:58:24;;;;;;;;;9.50;9.25;;;;;10.63;79.84;102474.47;5056368;28;45956;-79
2022/01/30 02:00:50;;;;;;;;;13.50;10.50;;;;;10.72;79.62;102491.50;5036402;28;45454;-78
2022/01/30 02:03:17;;;;;;;;;13.00;10.50;;;;;10.70;78.79;102492.25;5032605;28;45454;-78
2022/01/30 02:05:48;;;;;;;;;11.00;9.50;;;;;10.71;79.27;102500.25;5037557;28;45334;-79
2022/01/30 02:25:06;;;;;;;;;7.25;5.00;;;;;10.71;79.07;102484.44;4936407;28;45461;-79
2022/01/30 02:27:35;;;;;;;;;11.00;9.75;;;;;10.69;79.48;102482.56;4936871;28;45357;-79
2022/01/30 02:30:15;;;;;;;;;9.50;9.00;;;;;10.68;78.89;102472.88;4936098;28;47223;-79
2022/01/30 02:32:41;;;;;;;;;8.50;7.25;;;;;10.62;79.25;102462.13;4920251;28;45227;-79
2022/01/30 02:35:07;;;;;;;;;12.25;10.75;;;;;10.51;79.28;102452.09;4916579;28;45500;-79
2022/01/30 02:37:33;;;;;;;;;15.75;12.75;;;;;10.68;79.00;102483.41;4939414;28;45363;-80
2022/01/30 02:39:58;;;;;;;;;14.25;10.75;;;;;10.61;79.76;102481.41;4926951;28;45379;-78
2022/01/30 02:42:29;;;;;;;;;16.50;11.25;;;;;10.62;78.85;102480.59;4920859;28;45496;-79
2022/01/30 02:44:59;;;;;;;;;10.00;8.25;;;;;10.64;79.88;102471.00;4932159;28;45515;-79
2022/01/30 02:47:42;;;;;;;;;10.25;9.50;;;;;10.70;79.67;102474.75;4922794;28;45537;-79
2022/01/30 02:50:13;;;;;;;;;11.25;11.25;;;;;10.67;79.01;102473.72;4938754;28;45596;-78
2022/01/30 02:52:42;;;;;;;;;9.50;8.75;;;;;10.69;79.70;102482.56;4935889;28;45860;-76
2022/01/30 02:55:09;;;;;;;;;13.75;12.75;;;;;10.70;78.68;102485.28;5020125;28;45467;-79
2022/01/30 02:57:34;;;;;;;;;14.00;11.00;;;;;10.73;78.90;102488.03;5002238;28;45492;-79
2022/01/30 03:00:00;;;;;;;;;11.50;11.50;;;;;10.57;79.18;102459.31;5025531;28;46053;-79
2022/01/30 03:02:25;;;;;;;;;15.25;13.00;;;;;10.66;78.77;102480.72;5026900;28;45457;-79
2022/01/30 03:04:50;;;;;;;;;12.25;11.50;;;;;10.75;79.48;102493.34;5033558;28;45463;-79
2022/01/30 03:07:16;;;;;;;;;15.50;11.00;;;;;10.73;78.40;102484.50;5030776;28;45446;-79
2022/01/30 03:09:41;;;;;;;;;9.75;9.75;;;;;10.79;78.60;102485.56;5024082;28;47086;-79
2022/01/30 03:12:07;;;;;;;;;11.00;9.50;;;;;10.82;78.33;102493.63;5020028;28;45222;-80
2022/01/30 03:14:33;;;;;;;;;9.50;8.75;;;;;10.83;78.01;102502.41;5020846;28;45296;-79
2022/01/30 03:16:58;;;;;;;;;13.25;12.00;;;;;10.75;78.31;102475.78;5023812;28;45202;-78
2022/01/30 03:19:23;;;;;;;;;16.00;12.00;;;;;10.65;78.58;102454.34;5018672;28;48194;-79
2022/01/30 03:21:49;;;;;;;;;13.00;11.50;;;;;10.82;78.49;102488.34;5024141;28;45189;-80
2022/01/30 03:24:14;;;;;;;;;19.25;15.50;;;;;10.83;78.42;102497.13;5033977;28;45236;-79
2022/01/30 03:26:41;;;;;;;;;14.75;12.00;;;;;10.83;78.26;102495.41;5040236;28;45252;-79
2022/01/30 03:29:08;;;;;;;;;13.50;12.25;;;;;10.83;78.49;102499.78;5037972;28;47159;-80
2022/01/30 03:31:39;;;;;;;;;16.00;13.50;;;;;10.71;77.37;102479.16;5039204;28;45437;-79
2022/01/30 03:34:11;;;;;;;;;15.75;13.00;;;;;10.77;78.47;102496.91;5035568;28;45285;-76
2022/01/30 03:36:37;;;;;;;;;10.00;10.00;;;;;10.59;77.12;102478.72;5038940;28;45428;-80
2022/01/30 03:39:04;;;;;;;;;11.00;9.25;;;;;10.71;75.92;102491.44;5037788;28;45265;-78
2022/01/30 03:41:30;;;;;;;;;11.50;11.50;;;;;10.69;75.80;102495.75;5038781;28;45489;-77
2022/01/30 03:43:55;;;;;;;;;11.00;11.00;;;;;10.69;75.02;102507.19;5029295;28;45245;-79
2022/01/30 03:46:22;;;;;;;;;8.75;8.75;;;;;10.62;74.19;102483.22;5019591;28;45248;-79
2022/01/30 03:48:47;;;;;;;;;10.50;10.00;;;;;10.58;73.10;102487.47;5030772;28;45354;-78
2022/01/30 03:51:13;;;;;;;;;9.00;8.75;;;;;10.65;72.53;102489.50;5019089;28;45407;-78
2022/01/30 03:53:38;;;;;;;;;7.00;7.00;;;;;10.63;70.75;102487.66;5019534;28;45407;-78
2022/01/30 03:56:05;;;;;;;;;7.25;7.25;;;;;10.61;69.92;102482.34;5019434;28;45595;-79
2022/01/30 03:58:31;;;;;;;;;11.00;8.00;;;;;10.59;69.07;102501.53;5037609;28;46613;-78
2022/01/30 04:00:57;;;;;;;;;8.50;7.50;;;;;10.53;67.16;102491.69;5023510;28;45422;-79
2022/01/30 04:03:22;;;;;;;;;11.00;11.00;;;;;10.46;66.57;102492.31;5036592;28;45443;-79
2022/01/30 04:05:48;;;;;;;;;11.75;11.75;;;;;10.47;65.38;102500.25;5019772;28;45260;-78
2022/01/30 04:08:14;;;;;;;;;15.50;12.25;;;;;10.40;65.36;102494.72;5039144;28;46176;-77
2022/01/30 04:10:39;;;;;;;;;11.00;10.00;;;;;10.39;65.22;102492.94;5036908;28;45484;-78
2022/01/30 04:13:05;;;;;;;;;41.75;33.50;;;;;10.37;63.73;102499.88;5022860;28;45435;-79
2022/01/30 04:15:31;;;;;;;;;65.00;51.75;;;;;10.45;64.04;102520.41;5036844;28;45227;-80
2022/01/30 04:17:56;;;;;;;;;67.75;50.50;;;;;10.33;63.22;102497.97;5019241;28;46422;-79
2022/01/30 04:20:22;;;;;;;;;50.25;42.50;;;;;10.36;63.53;102509.53;5019068;28;45427;-80
2022/01/30 04:22:47;;;;;;;;;31.75;26.75;;;;;10.36;63.19;102516.53;5031703;28;45398;-78
2022/01/30 04:25:13;;;;;;;;;22.00;19.75;;;;;10.25;62.99;102505.59;5040212;28;45287;-79
2022/01/30 04:27:38;;;;;;;;;12.25;10.00;;;;;10.27;63.67;102511.81;5038946;28;45611;-80
2022/01/30 04:30:05;;;;;;;;;3.75;3.75;;;;;10.13;61.84;102500.72;5038918;28;45335;-79
2022/01/30 04:32:33;;;;;;;;;8.75;7.00;;;;;10.12;63.33;102493.66;5037319;28;45368;-79
2022/01/30 04:35:00;;;;;;;;;4.00;2.75;;;;;10.22;63.08;102514.28;5039151;28;45344;-79
2022/01/30 04:37:50;;;;;;;;;2.75;2.75;;;;;10.21;62.83;102514.19;5038643;28;46380;-78
2022/01/30 05:04:25;;;;;;;;;1.25;1.25;;;;;9.89;62.01;102513.88;4979636;28;45322;-80
2022/01/30 05:09:20;;;;;;;;;3.50;2.00;;;;;9.84;62.38;102510.16;4983477;28;45485;-79
2022/01/30 05:11:45;;;;;;;;;5.00;4.00;;;;;9.96;61.89;102529.06;4972483;28;45832;-81
2022/01/30 05:14:13;;;;;;;;;3.00;2.00;;;;;9.98;62.59;102537.03;4974959;28;45452;-81
2022/01/30 05:16:39;;;;;;;;;3.75;3.00;;;;;9.88;61.70;102519.97;4976892;28;45487;-79
2022/01/30 05:19:05;;;;;;;;;4.50;4.00;;;;;9.91;62.17;102535.00;4973353;28;47082;-79
2022/01/30 05:21:33;;;;;;;;;3.00;2.25;;;;;9.92;62.21;102539.41;4986945;28;45353;-80
2022/01/30 05:23:59;;;;;;;;;1.00;1.00;;;;;9.89;61.54;102545.47;5018345;28;45460;-80
2022/01/30 05:26:27;;;;;;;;;5.50;4.00;;;;;9.86;61.97;102539.16;5038004;28;45265;-80
2022/01/30 05:28:53;;;;;;;;;2.50;1.50;;;;;9.88;61.69;102545.41;5020146;28;46118;-80
2022/01/30 05:31:27;;;;;;;;;3.00;2.00;;;;;9.80;61.18;102544.22;5037070;28;45391;-79
2022/01/30 05:33:53;;;;;;;;;5.25;2.25;;;;;9.75;61.42;102537.84;5035234;28;45475;-80
2022/01/30 05:36:20;;;;;;;;;6.75;1.50;;;;;9.84;61.45;102552.28;5040004;28;45261;-80
2022/01/30 05:38:46;;;;;;;;;3.00;3.00;;;;;9.86;62.33;102553.22;5037567;28;46388;-79
2022/01/30 05:41:12;;;;;;;;;4.00;2.00;;;;;9.60;61.69;102510.09;5037794;28;45200;-79
2022/01/30 05:43:38;;;;;;;;;4.00;2.00;;;;;9.56;61.75;102509.91;5036265;28;45381;-80
2022/01/30 05:46:11;;;;;;;;;4.00;2.75;;;;;9.84;61.50;102557.53;5038061;28;45257;-80
2022/01/30 05:48:37;;;;;;;;;2.50;2.50;;;;;9.83;61.92;102561.00;5037829;28;45727;-78
2022/01/30 05:51:02;;;;;;;;;3.25;2.00;;;;;9.60;61.51;102514.47;5037328;28;45442;-79
2022/01/30 05:53:28;;;;;;;;;5.25;2.50;;;;;9.82;61.67;102561.84;5036862;28;45367;-79
2022/01/30 05:55:53;;;;;;;;;3.00;2.00;;;;;9.77;62.56;102559.84;5019123;28;45405;-78
2022/01/30 05:58:19;;;;;;;;;2.75;2.00;;;;;9.67;62.38;102543.69;5037922;28;45946;-79
2022/01/30 06:00:44;;;;;;;;;4.00;3.00;;;;;9.74;62.73;102563.28;5037054;28;45391;-79
2022/01/30 06:03:09;;;;;;;;;5.00;3.00;;;;;9.60;62.05;102549.56;5037203;28;45497;-78
2022/01/30 06:05:38;;;;;;;;;7.00;3.00;;;;;9.67;61.94;102561.22;5035650;28;45327;-78
2022/01/30 06:08:12;;;;;;;;;2.25;2.25;;;;;9.68;62.18;102565.69;5036714;28;46263;-79
2022/01/30 06:10:37;;;;;;;;;6.50;2.75;;;;;9.69;62.51;102573.63;5038257;28;45554;-78
2022/01/30 06:13:03;;;;;;;;;5.25;4.00;;;;;9.67;62.71;102572.66;5037796;28;46894;-80
2022/01/30 06:15:28;;;;;;;;;3.75;2.50;;;;;9.69;63.03;102573.63;5034186;28;45542;-78
2022/01/30 06:17:53;;;;;;;;;4.50;3.00;;;;;9.70;62.97;102575.41;5037323;28;45462;-79
2022/01/30 06:20:19;;;;;;;;;3.50;1.75;;;;;9.66;62.70;102573.47;5035462;28;46086;-79
2022/01/30 06:22:44;;;;;;;;;6.50;6.25;;;;;9.52;62.68;102550.09;5037427;28;45284;-80
2022/01/30 06:25:10;;;;;;;;;8.75;7.75;;;;;9.66;61.99;102589.28;5035879;28;45169;-80
2022/01/30 06:27:36;;;;;;;;;5.50;3.00;;;;;9.61;63.17;102589.94;5037021;28;46840;-80
2022/01/30 06:30:07;;;;;;;;;3.50;3.50;;;;;9.63;63.27;102599.69;5036111;28;45372;-80
2022/01/30 06:32:32;;;;;;;;;4.25;2.25;;;;;9.57;62.74;102594.16;5037332;28;45305;-78
2022/01/30 06:34:58;;;;;;;;;2.25;2.25;;;;;9.56;63.51;102596.72;5035702;28;45253;-80
2022/01/30 06:37:23;;;;;;;;;6.50;1.75;;;;;9.33;62.87;102553.72;5036889;28;46460;-79
2022/01/30 06:39:49;;;;;;;;;2.00;2.00;;;;;9.52;62.83;102585.19;5037136;28;45256;-77
2022/01/30 06:42:14;;;;;;;;;3.00;2.00;;;;;9.50;62.56;102580.72;5028793;28;45501;-78
2022/01/30 06:44:42;;;;;;;;;3.50;2.50;;;;;9.33;62.25;102558.97;5037384;28;45414;-79
2022/01/30 06:47:08;;;;;;;;;3.00;3.00;;;;;9.28;62.83;102561.38;5028978;28;46112;-79
2022/01/30 06:49:33;;;;;;;;;7.25;3.75;;;;;9.33;62.25;102569.50;5036910;28;45321;-79
2022/01/30 06:51:58;;;;;;;;;6.25;2.00;;;;;9.35;62.53;102579.22;5035889;28;45342;-81
2022/01/30 06:54:24;;;;;;;;;2.75;2.75;;;;;9.37;62.87;102593.34;5037237;28;45347;-80
2022/01/30 06:56:49;;;;;;;;;4.00;4.00;;;;;9.24;61.71;102561.22;5034120;28;46230;-81
2022/01/30 06:59:15;;;;;;;;;3.25;2.50;;;;;9.36;62.66;102588.00;5036775;28;45513;-79
2022/01/30 07:01:40;;;;;;;;;3.75;3.75;;;;;9.22;62.81;102563.78;5028027;28;45291;-80
2022/01/30 07:04:06;;;;;;;;;9.00;2.25;;;;;9.16;62.37;102567.88;5016716;28;45293;-79
2022/01/30 07:06:31;;;;;;;;;5.00;3.00;;;;;9.18;63.17;102597.75;5030993;28;48448;-80
2022/01/30 07:08:57;;;;;;;;;3.50;1.75;;;;;9.09;62.80;102591.25;5036560;28;45332;-80
2022/01/30 07:11:22;;;;;;;;;5.50;3.75;;;;;8.96;63.11;102583.69;5035016;28;45222;-79
2022/01/30 07:13:48;;;;;;;;;7.25;3.75;;;;;8.94;63.55;102592.34;5036660;28;45436;-79
2022/01/30 07:16:15;;;;;;;;;3.00;1.50;;;;;8.89;63.79;102602.66;5035720;28;46053;-79
2022/01/30 07:18:41;;;;;;;;;5.25;5.25;;;;;8.75;64.10;102588.91;5017069;28;45258;-80
2022/01/30 07:21:09;;;;;;;;;2.50;2.50;;;;;8.75;64.58;102603.78;5025661;28;45424;-80
2022/01/30 07:23:35;;;;;;;;;1.50;1.00;;;;;8.73;64.01;102611.56;5040966;28;45426;-79
2022/01/30 07:26:01;;;;;;;;;7.50;2.75;;;;;8.41;63.97;102575.97;5039586;28;45486;-80
2022/01/30 07:28:26;;;;;;;;;3.75;3.75;;;;;8.59;64.59;102614.44;5032919;28;45416;-80
2022/01/30 07:30:52;;;;;;;;;3.00;2.50;;;;;8.62;64.72;102630.31;5039591;28;45248;-79
2022/01/30 07:33:17;;;;;;;;;6.00;5.25;;;;;8.57;64.50;102627.50;5039923;28;45353;-79
2022/01/30 07:35:43;;;;;;;;;4.00;4.00;;;;;8.54;64.25;102632.59;5038238;28;45739;-80
2022/01/30 07:38:09;;;;;;;;;3.00;2.00;;;;;8.55;64.21;102639.63;5033343;28;45245;-80
2022/01/30 07:40:35;;;;;;;;;7.00;5.00;;;;;8.53;64.52;102642.19;5039379;28;45204;-79
2022/01/30 07:43:01;;;;;;;;;7.25;7.00;;;;;8.42;64.45;102627.69;5021303;28;45534;-80
2022/01/30 07:45:26;;;;;;;;;7.75;3.25;;;;;8.50;64.15;102647.31;5039446;28;46609;-80
2022/01/30 07:47:52;;;;;;;;;6.25;4.00;;;;;8.24;64.35;102608.41;5029128;28;45510;-80
2022/01/30 07:50:18;;;;;;;;;3.25;2.75;;;;;8.48;64.76;102648.97;5021439;28;45307;-79
2022/01/30 07:52:44;;;;;;;;;6.50;2.75;;;;;8.27;64.48;102605.91;5037266;28;45240;-82
2022/01/30 07:55:10;;;;;;;;;1.75;1.75;;;;;8.46;64.68;102647.09;5015173;28;47409;-79
2022/01/30 07:57:35;;;;;;;;;4.75;2.00;;;;;8.51;64.81;102654.38;5030959;28;45397;-79
2022/01/30 08:00:01;;;;;;;;;6.25;6.25;;;;;8.45;64.82;102640.03;5035810;28;45368;-76
2022/01/30 08:02:27;;;;;;;;;5.25;4.00;;;;;8.53;64.77;102650.06;5028719;28;45482;-81
2022/01/30 08:04:54;;;;;;;;;4.25;3.75;;;;;8.61;64.49;102667.94;5032558;28;46440;-81
2022/01/30 08:07:19;;;;;;;;;6.75;3.50;;;;;8.33;64.14;102602.69;5037991;28;45228;-81
2022/01/30 08:09:45;;;;;;;;;3.75;3.75;;;;;8.56;64.26;102639.72;5036473;28;45331;-80
2022/01/30 08:12:11;;;;;;;;;4.25;4.25;;;;;8.59;64.12;102622.31;5038141;28;45245;-80
2022/01/30 08:14:36;;;;;;;;;4.25;3.25;;;;;8.92;64.04;102664.97;5037034;28;45232;-80
2022/01/30 08:17:02;;;;;;;;;6.25;4.00;;;;;8.70;63.90;102608.81;5037927;28;45473;-80
2022/01/30 08:19:27;;;;;;;;;4.00;4.00;;;;;9.17;63.02;102666.97;5028442;28;45748;-79
2022/01/30 08:21:53;;;;;;;;;6.00;6.00;;;;;9.29;62.34;102668.38;5038553;28;45585;-79
2022/01/30 08:24:22;;;;;;;;;6.75;3.00;;;;;8.99;62.66;102604.84;5020540;28;45610;-79
2022/01/30 08:26:47;;;;;;;;;6.50;4.50;;;;;9.10;62.29;102597.41;5037649;28;45478;-79
2022/01/30 08:29:12;;;;;;;;;4.75;2.75;;;;;9.46;61.33;102652.44;5034481;28;45470;-79
2022/01/30 08:31:38;;;;;;;;;7.25;4.00;;;;;9.24;61.70;102613.81;5036522;28;45391;-80
2022/01/30 08:34:03;;;;;;;;;7.75;5.50;;;;;9.41;60.79;102633.84;5024505;28;45360;-77
2022/01/30 08:36:29;;;;;;;;;7.00;4.50;;;;;9.33;61.11;102608.94;5037387;28;45321;-76
2022/01/30 08:38:54;;;;;;;;;7.00;4.00;;;;;9.71;61.08;102661.44;5038545;28;45529;-77
2022/01/30 08:41:19;;;;;;;;;5.25;2.50;;;;;9.50;60.66;102639.50;5034215;28;45515;-77
2022/01/30 08:43:46;;;;;;;;;6.50;4.50;;;;;9.62;60.73;102666.31;5024547;28;46180;-76
2022/01/30 08:46:13;;;;;;;;;2.75;1.75;;;;;9.62;60.67;102655.78;5038130;28;45344;-78
2022/01/30 08:48:39;;;;;;;;;9.25;4.50;;;;;9.59;60.24;102657.41;5038772;28;45259;-79
2022/01/30 08:51:04;;;;;;;;;7.00;6.00;;;;;9.63;60.51;102667.19;5037733;28;45419;-79
2022/01/30 08:53:30;;;;;;;;;8.00;6.50;;;;;9.61;60.21;102668.88;5038693;28;46045;-84
2022/01/30 08:55:55;;;;;;;;;3.00;3.00;;;;;9.57;59.94;102654.66;5043245;28;45458;-77
2022/01/30 08:58:25;;;;;;;;;3.25;3.00;;;;;9.53;60.14;102651.88;5044495;28;45653;-79
2022/01/30 09:00:50;;;;;;;;;9.75;2.25;;;;;9.61;60.08;102672.41;5027438;28;45492;-80
2022/01/30 09:03:16;;;;;;;;;6.00;3.50;;;;;9.24;59.94;102598.03;5037448;28;45560;-80
2022/01/30 09:05:42;;;;;;;;;4.00;4.00;;;;;9.27;59.73;102606.94;5040377;28;45450;-78
2022/01/30 09:08:07;;;;;;;;;1.00;1.00;;;;;9.55;59.19;102652.81;5020231;28;45264;-77
2022/01/30 09:10:34;;;;;;;;;4.50;2.25;;;;;9.73;59.64;102686.91;5028166;28;45487;-79
2022/01/30 09:13:01;;;;;;;;;3.00;1.50;;;;;9.64;59.07;102651.47;5019971;28;46639;-77
2022/01/30 09:15:27;;;;;;;;;7.25;4.75;;;;;9.83;59.06;102668.94;5027429;28;45489;-79
2022/01/30 09:17:53;;;;;;;;;7.50;3.25;;;;;9.66;58.57;102631.38;5032329;28;45410;-77
2022/01/30 09:20:18;;;;;;;;;8.00;5.50;;;;;9.95;58.92;102663.25;5023574;28;45186;-76
2022/01/30 09:22:44;;;;;;;;;3.00;3.00;;;;;10.03;58.16;102672.38;5032458;28;45207;-75
2022/01/30 09:25:10;;;;;;;;;2.75;2.75;;;;;10.15;57.90;102683.41;5033727;28;45419;-78
2022/01/30 09:27:35;;;;;;;;;3.00;3.00;;;;;9.97;57.39;102636.19;5036084;28;45240;-77
2022/01/30 09:30:01;;;;;;;;;3.50;3.00;;;;;10.67;56.26;102680.19;5037320;28;45289;-77
2022/01/30 09:32:26;;;;;;;;;3.00;2.00;;;;;12.09;52.75;102598.06;5029832;28;45296;-79
2022/01/30 09:34:52;;;;;;;;;3.00;3.00;;;;;13.95;48.99;102624.34;5030072;28;45490;-78
2022/01/30 09:37:17;;;;;;;;;3.00;1.50;;;;;15.61;44.54;102579.09;5016601;28;45437;-77
2022/01/30 09:39:44;;;;;;;;;4.75;4.75;;;;;17.72;40.85;102679.38;5036238;28;45567;-78
2022/01/30 09:42:10;;;;;;;;;3.00;3.00;;;;;18.34;39.05;102669.19;5017712;28;46539;-78
2022/01/30 09:44:39;;;;;;;;;7.75;5.00;;;;;17.99;38.68;102620.06;5030208;28;45455;-78
2022/01/30 09:47:09;;;;;;;;;3.00;3.00;;;;;18.10;38.85;102663.69;5035635;28;45479;-78
2022/01/30 09:49:36;;;;;;;;;4.50;2.50;;;;;20.37;35.71;102676.75;5035204;28;45620;-77
2022/01/30 09:52:01;;;;;;;;;2.00;1.50;;;;;22.74;32.48;102676.03;5036630;28;45596;-82
2022/01/30 09:54:27;;;;;;;;;4.00;2.00;;;;;24.26;29.46;102640.50;5037378;28;45504;-80
2022/01/30 09:56:52;;;;;;;;;3.33;3.33;;;;;24.90;28.20;102681.44;5036845;28;45320;-82
2022/01/30 09:59:18;;;;;;;;;4.33;4.33;;;;;26.12;27.23;102668.63;5040718;28;45451;-81
2022/01/30 10:01:43;;;;;;;;;8.67;5.00;;;;;27.31;25.54;102672.41;5050346;28;47643;-80
2022/01/30 10:04:09;;;;;;;;;1.67;1.67;;;;;28.32;24.15;102686.19;5037001;28;45740;-81
2022/01/30 10:07:15;;;;;;;;;5.67;5.67;;;;;28.77;23.32;102676.41;5036726;28;45372;-78
2022/01/30 10:09:46;;;;;;;;;5.67;5.00;;;;;28.59;22.66;102662.59;4956212;28;45215;-79
2022/01/30 10:12:19;;;;;;;;;8.33;7.00;;;;;28.87;22.55;102680.53;4955655;28;46014;-78
2022/01/30 10:14:48;;;;;;;;;4.00;4.00;;;;;28.73;22.66;102677.44;4952235;28;46329;-80
2022/01/30 10:17:36;;;;;;;;;2.50;2.50;;;;;26.05;24.95;102676.94;4936902;28;45353;-80
2022/01/30 10:20:11;;;;;;;;;2.50;2.50;;;;;24.04;27.79;102674.13;4932872;28;45231;-80
2022/01/30 10:22:49;;;;;;;;;3.00;3.00;;;;;22.55;29.63;102666.41;4940016;28;46834;-79
2022/01/30 10:25:25;;;;;;;;;9.67;7.67;;;;;22.51;29.75;102683.47;4951632;28;45516;-80
2022/01/30 10:28:13;;;;;;;;;6.67;5.33;;;;;25.13;27.13;102679.19;4952365;28;45604;-81
2022/01/30 10:30:47;;;;;;;;;5.67;5.67;;;;;27.13;24.23;102676.59;4953759;28;45547;-79
2022/01/30 10:33:15;;;;;;;;;8.25;5.00;;;;;28.57;23.14;102669.00;4954700;28;46136;-84
2022/01/30 10:35:51;;;;;;;;;3.25;3.25;;;;;28.67;22.16;102671.34;4958200;28;45307;-82
2022/01/30 10:38:19;;;;;;;;;4.50;3.25;;;;;25.66;24.62;102655.41;4957181;28;45420;-81
2022/01/30 10:40:59;;;;;;;;;6.50;6.00;;;;;23.87;27.16;102671.72;5005769;28;45574;-81
2022/01/30 10:43:46;;;;;;;;;5.00;3.00;;;;;26.11;25.34;102669.56;5029050;28;46101;-81
2022/01/30 10:46:30;;;;;;;;;3.00;3.00;;;;;27.79;22.77;102669.94;5036130;28;45997;-81
2022/01/30 10:48:58;;;;;;;;;4.00;3.50;;;;;28.91;21.12;102674.94;5037194;28;45269;-83
2022/01/30 10:51:25;;;;;;;;;3.75;3.00;;;;;29.53;21.11;102662.53;5035829;28;45507;-81
2022/01/30 10:53:51;;;;;;;;;5.75;5.75;;;;;28.99;21.20;102661.09;5036238;28;47175;-81
2022/01/30 10:56:27;;;;;;;;;5.00;5.00;;;;;28.72;21.60;102659.41;5039475;28;45426;-82
2022/01/30 10:59:11;;;;;;;;;7.00;5.00;;;;;29.31;20.83;102669.75;5040014;28;45294;-80
2022/01/30 11:01:42;;;;;;;;;2.75;2.75;;;;;29.96;20.80;102675.16;5037559;28;45355;-79
2022/01/30 11:04:29;;;;;;;;;9.50;3.50;;;;;30.00;19.85;102665.94;5039649;28;45312;-81
2022/01/30 11:06:56;;;;;;;;;5.00;4.60;;;;;29.99;19.59;102644.28;5040265;28;45381;-81
2022/01/30 11:09:29;;;;;;;;;5.75;5.00;;;;;30.30;19.96;102622.94;5040149;28;45331;-82
2022/01/30 11:12:03;;;;;;;;;4.00;3.25;;;;;30.59;18.83;102656.94;5040131;28;45529;-82
2022/01/30 11:14:52;;;;;;;;;6.00;5.75;;;;;30.38;19.99;102674.28;5039339;28;45931;-82
2022/01/30 11:17:22;;;;;;;;;4.60;4.00;;;;;29.58;20.13;102655.06;5039494;28;45380;-82
2022/01/30 11:19:52;;;;;;;;;4.40;4.40;;;;;28.24;21.21;102644.88;5039941;28;45222;-80
2022/01/30 11:22:22;;;;;;;;;6.00;4.25;;;;;26.85;22.91;102643.16;5037630;28;45403;-82
2022/01/30 11:25:08;;;;;;;;;3.75;3.00;;;;;25.49;24.18;102647.72;5004925;28;46177;-82
2022/01/30 11:27:35;;;;;;;;;5.00;5.00;;;;;24.84;24.92;102622.25;5038503;28;45339;-80
2022/01/30 11:30:01;;;;;;;;;7.25;4.00;;;;;24.37;25.58;102643.88;5040412;28;45361;-80
2022/01/30 11:32:28;;;;;;;;;6.00;6.00;;;;;23.81;25.72;102637.72;5035259;28;45364;-80
2022/01/30 11:34:56;;;;;;;;;7.00;7.00;;;;;23.11;26.76;102616.44;5037773;28;45411;-82
2022/01/30 11:37:31;;;;;;;;;4.50;4.50;;;;;22.47;27.95;102626.22;5037148;28;46100;-81
2022/01/30 11:39:59;;;;;;;;;3.00;3.00;;;;;21.85;28.29;102625.03;5019920;28;45191;-83
2022/01/30 11:42:27;;;;;;;;;6.75;5.00;;;;;21.36;28.92;102614.75;5033751;28;45320;-82
2022/01/30 11:45:05;;;;;;;;;4.33;4.33;;;;;20.49;30.31;102605.38;5036602;28;45606;-82
2022/01/30 11:47:50;;;;;;;;;10.00;6.00;;;;;20.07;30.82;102621.53;5031822;28;45825;-82
2022/01/30 11:50:26;;;;;;;;;5.67;5.67;;;;;19.57;31.36;102591.28;5036144;28;46969;-79
2022/01/30 11:53:02;;;;;;;;;6.00;5.33;;;;;19.28;31.92;102609.94;5027974;28;45608;-79
2022/01/30 11:55:53;;;;;;;;;5.33;4.67;;;;;19.25;32.32;102609.03;5029431;28;46478;-79
2022/01/30 11:58:37;;;;;;;;;5.00;5.00;;;;;19.42;32.33;102604.59;5035799;28;45479;-80
2022/01/30 12:01:15;;;;;;;;;7.33;7.33;;;;;19.52;32.32;102590.34;5039034;28;45376;-87
2022/01/30 12:04:06;;;;;;;;;5.67;5.67;;;;;19.42;32.23;102585.00;5039631;28;45285;-82
2022/01/30 12:06:35;;;;;;;;;5.00;5.00;;;;;19.42;32.65;102598.34;5027704;28;45330;-83
2022/01/30 12:09:14;;;;;;;;;6.00;6.00;;;;;19.32;32.47;102587.66;5019799;28;45479;-81
2022/01/30 12:11:40;;;;;;;;;11.00;8.33;;;;;19.17;32.85;102593.00;5019124;28;45491;-81
2022/01/30 12:14:21;;;;;;;;;9.00;7.00;;;;;18.93;33.01;102560.91;5019167;28;45373;-78
2022/01/30 12:17:02;;;;;;;;;8.00;8.00;;;;;18.72;33.12;102600.03;5022391;28;45468;-78
2022/01/30 12:19:30;;;;;;;;;10.00;8.00;;;;;18.40;33.37;102591.84;5018889;28;45321;-77
2022/01/30 12:21:59;;;;;;;;;6.67;6.67;;;;;17.79;33.98;102563.94;5022485;28;45190;-75
2022/01/30 12:24:31;;;;;;;;;11.00;7.33;;;;;17.24;35.13;102566.13;5035503;28;45430;-78